Asher, Oklahoma
Current Conditions -  °F | °C
As of 4:55 AM on Friday 31 Oct 2014 (Local Time) from KADH Reporting Station
Clear Clear  
Wind Chill: 52°   Ceiling: Unl
Heat Index: 52°   Visibility: 10mi
Dew Point: 41°   Wind: 8mph
Humidity: 67%   Direction: 340°NNW
Pressure: 30.25"   Gusts: NA
Location:  34.99°N, 96.92°W
Report Text: KADH 310955Z AUTO 34007KT 10SM CLR 11/05 A3025 RMK AO2
Loading
Personal Weather Stations






























Interactive Weather Map New forecast layout! Learn more

10-Day Weather Forecast

Advertisements
Track Severe Weather on mobile